📊 John's Weather Station

Last reading: 2021-09-27 22:04:29

TEMPERATURE

--

Temperature 20 readings
Min Max Average
10.02 °C 10.30 °C 10.17 °C

HUMIDITY

--

Humidity 20 readings
Min Max Average
72.20 % 73.64 % 72.82 %

View Latest 20 Readings

ID Sensor Location Temp Humid Bar Timestamp
84628 BME280 Lounge 10.02 73.64 1014.48 2021-09-27 22:04:29
84627 BME280 Lounge 10.05 73.43 1014.58 2021-09-27 21:54:53
84626 BME280 Lounge 10.13 73.20 1014.71 2021-09-27 21:45:17
84625 BME280 Lounge 10.18 72.96 1014.60 2021-09-27 21:35:40
84624 BME280 Lounge 10.25 72.72 1014.67 2021-09-27 21:26:04
84623 BME280 Lounge 10.30 72.74 1014.74 2021-09-27 21:16:27
84622 BME280 Lounge 10.25 72.89 1014.74 2021-09-27 21:06:51
84621 BME280 Lounge 10.20 72.97 1014.85 2021-09-27 20:57:16
84620 BME280 Lounge 10.17 73.03 1014.88 2021-09-27 20:47:38
84619 BME280 Lounge 10.14 73.02 1014.89 2021-09-27 20:38:02
84618 BME280 Lounge 10.15 72.97 1014.81 2021-09-27 20:28:26
84617 BME280 Lounge 10.20 72.81 1014.78 2021-09-27 20:18:48
84616 BME280 Lounge 10.22 72.72 1014.82 2021-09-27 20:09:11
84615 BME280 Lounge 10.13 72.67 1014.57 2021-09-27 19:59:35
84614 BME280 Lounge 10.18 72.61 1014.65 2021-09-27 19:49:58
84613 BME280 Lounge 10.14 72.57 1014.44 2021-09-27 19:40:21
84612 BME280 Lounge 10.23 72.52 1014.69 2021-09-27 19:30:45
84611 BME280 Lounge 10.12 72.42 1014.69 2021-09-27 19:21:08
84610 BME280 Lounge 10.13 72.33 1014.48 2021-09-27 19:11:31
84609 BME280 Lounge 10.15 72.20 1014.49 2021-09-27 19:01:55